createdAt,value
2022-09-07T00:01:06.002Z,56.83
2022-09-07T00:03:32.401Z,56.45
2022-09-07T00:05:58.713Z,56.86
2022-09-07T00:08:25.166Z,56.66
2022-09-07T00:10:51.657Z,56.82
2022-09-07T00:13:17.974Z,56.70
2022-09-07T00:15:44.340Z,56.63
2022-09-07T00:18:10.685Z,56.67
2022-09-07T00:20:37.085Z,56.79
2022-09-07T00:23:03.657Z,56.81
2022-09-07T00:25:32.043Z,56.77
2022-09-07T00:27:59.240Z,56.49
2022-09-07T00:30:25.570Z,56.79
2022-09-07T00:32:51.919Z,56.82
2022-09-07T00:35:18.313Z,56.58
2022-09-07T00:37:44.663Z,56.68
2022-09-07T00:40:11.233Z,56.62
2022-09-07T00:42:37.645Z,56.40
2022-09-07T00:45:03.949Z,56.58
2022-09-07T00:47:30.259Z,56.60
2022-09-07T00:49:56.748Z,56.33
2022-09-07T00:52:23.086Z,56.33
2022-09-07T00:54:49.761Z,56.81
2022-09-07T00:57:16.261Z,56.69
2022-09-07T00:59:42.564Z,56.48
2022-09-07T01:02:09.995Z,56.82
2022-09-07T01:04:36.759Z,56.77
2022-09-07T01:07:03.504Z,56.99
2022-09-07T01:09:30.068Z,56.52
2022-09-07T01:11:56.602Z,56.73
2022-09-07T01:14:23.070Z,56.60
2022-09-07T01:16:50.365Z,56.84
2022-09-07T01:19:17.073Z,56.75
2022-09-07T01:21:43.707Z,56.58
2022-09-07T01:24:10.147Z,56.71
2022-09-07T01:26:36.640Z,56.55
2022-09-07T01:29:03.081Z,56.53
2022-09-07T01:31:29.549Z,56.79
2022-09-07T01:33:55.841Z,56.61
2022-09-07T01:36:22.388Z,56.84
2022-09-07T01:38:48.884Z,56.56
2022-09-07T01:41:15.298Z,56.56
2022-09-07T01:43:41.990Z,56.40
2022-09-07T01:46:08.351Z,56.68
2022-09-07T01:48:34.699Z,56.59
2022-09-07T01:51:01.136Z,56.69
2022-09-07T01:53:27.446Z,56.54
2022-09-07T01:55:53.805Z,56.56
2022-09-07T01:58:20.119Z,56.64
2022-09-07T02:00:46.540Z,56.56
2022-09-07T02:03:13.184Z,56.84
2022-09-07T02:05:39.473Z,56.51
2022-09-07T02:08:05.811Z,56.44
2022-09-07T02:10:32.274Z,56.66
2022-09-07T02:12:58.578Z,56.51
2022-09-07T02:15:25.066Z,56.77
2022-09-07T02:17:51.347Z,56.97
2022-09-07T02:20:17.878Z,56.59
2022-09-07T02:22:44.230Z,56.43
2022-09-07T02:25:10.586Z,56.88
2022-09-07T02:27:36.928Z,56.48
2022-09-07T02:30:03.240Z,56.51
2022-09-07T02:32:29.576Z,56.36
2022-09-07T02:34:55.948Z,56.93
2022-09-07T02:37:22.429Z,56.72
2022-09-07T02:39:48.860Z,56.87
2022-09-07T02:42:15.425Z,57.00
2022-09-07T02:44:41.861Z,56.67
2022-09-07T02:47:08.139Z,56.80
2022-09-07T02:49:34.777Z,56.80
2022-09-07T02:52:01.233Z,56.93
2022-09-07T02:54:27.807Z,56.74
2022-09-07T02:56:54.777Z,56.95
2022-09-07T02:59:21.101Z,56.75
2022-09-07T03:01:47.528Z,57.03
2022-09-07T03:04:14.083Z,57.08
2022-09-07T03:06:40.405Z,57.27
2022-09-07T03:09:06.955Z,56.82
2022-09-07T03:11:34.669Z,56.88
2022-09-07T03:14:01.193Z,57.03
2022-09-07T03:16:27.755Z,57.30
2022-09-07T03:18:54.152Z,57.13
2022-09-07T03:21:20.500Z,57.11
2022-09-07T03:23:51.170Z,56.88
2022-09-07T03:26:18.174Z,56.71
2022-09-07T03:28:44.621Z,57.06
2022-09-07T03:31:10.997Z,56.83
2022-09-07T03:33:37.368Z,56.99
2022-09-07T03:36:03.821Z,56.98
2022-09-07T03:38:30.202Z,56.68
2022-09-07T03:40:56.641Z,56.85
2022-09-07T03:43:23.044Z,56.78
2022-09-07T03:45:49.640Z,57.05
2022-09-07T03:48:15.984Z,56.73
2022-09-07T03:50:42.297Z,56.66
2022-09-07T03:53:08.828Z,57.12
2022-09-07T03:55:35.184Z,57.11
2022-09-07T03:58:01.562Z,56.93
2022-09-07T04:00:27.973Z,56.91
2022-09-07T04:02:54.430Z,56.64
2022-09-07T04:05:20.837Z,56.98
2022-09-07T04:07:47.111Z,56.99
2022-09-07T04:10:13.749Z,57.03
2022-09-07T04:12:40.194Z,56.92
2022-09-07T04:15:06.597Z,57.12
2022-09-07T04:17:32.949Z,57.11
2022-09-07T04:19:59.361Z,56.69
2022-09-07T04:22:25.728Z,56.76
2022-09-07T04:24:52.089Z,56.82
2022-09-07T04:27:18.594Z,57.02
2022-09-07T04:29:45.092Z,56.91
2022-09-07T04:32:15.643Z,57.27
2022-09-07T04:34:42.414Z,56.84
2022-09-07T04:37:08.893Z,56.88
2022-09-07T04:39:35.373Z,57.16
2022-09-07T04:42:01.822Z,56.80
2022-09-07T04:44:28.099Z,57.13
2022-09-07T04:46:54.766Z,56.88
2022-09-07T04:49:21.124Z,56.98
2022-09-07T04:51:47.388Z,56.84
2022-09-07T04:54:13.725Z,57.17
2022-09-07T04:56:40.404Z,56.92
2022-09-07T04:59:06.738Z,57.34
2022-09-07T05:01:33.311Z,56.96
2022-09-07T05:03:59.837Z,56.91
2022-09-07T05:06:26.177Z,56.91
2022-09-07T05:08:52.468Z,56.91
2022-09-07T05:11:18.848Z,57.12
2022-09-07T05:13:45.744Z,57.21
2022-09-07T05:16:12.159Z,57.22
2022-09-07T05:18:38.528Z,56.84
2022-09-07T05:21:05.828Z,57.26
2022-09-07T05:23:32.192Z,57.23
2022-09-07T05:25:58.538Z,56.93
2022-09-07T05:28:25.024Z,56.84
2022-09-07T05:36:24.377Z,56.68
2022-09-07T05:38:50.873Z,57.02
2022-09-07T05:41:17.467Z,55.70
2022-09-07T05:46:30.306Z,55.54
2022-09-07T05:48:56.821Z,55.62
2022-09-07T05:51:23.366Z,55.39
2022-09-07T05:53:50.183Z,55.23
2022-09-07T05:56:16.760Z,55.67
2022-09-07T05:58:43.457Z,55.95
2022-09-07T06:01:09.843Z,56.01
2022-09-07T06:03:36.512Z,56.04
2022-09-07T06:06:02.806Z,56.38
2022-09-07T06:08:29.432Z,56.35
2022-09-07T06:10:56.097Z,56.11
2022-09-07T06:13:22.509Z,56.33
2022-09-07T06:15:49.037Z,56.28
2022-09-07T06:18:15.748Z,56.33
2022-09-07T06:20:42.087Z,56.62
2022-09-07T06:23:08.812Z,56.10
2022-09-07T06:25:35.266Z,56.36
2022-09-07T06:28:01.760Z,56.09
2022-09-07T06:30:28.262Z,56.40
2022-09-07T06:32:54.640Z,56.58
2022-09-07T06:35:21.977Z,56.33
2022-09-07T06:37:48.388Z,56.35
2022-09-07T06:40:14.800Z,56.06
2022-09-07T06:42:41.327Z,56.33
2022-09-07T06:45:08.202Z,56.27
2022-09-07T06:47:34.748Z,55.93
2022-09-07T06:50:01.060Z,56.08
2022-09-07T06:52:28.232Z,55.78
2022-09-07T06:57:23.819Z,55.83
2022-09-07T06:59:50.166Z,55.34
2022-09-07T07:02:16.744Z,55.03
2022-09-07T07:04:43.124Z,54.91
2022-09-07T07:07:09.562Z,55.25
2022-09-07T07:09:36.396Z,55.16
2022-09-07T07:12:02.773Z,55.41
2022-09-07T07:14:33.724Z,55.28
2022-09-07T07:17:01.646Z,55.86
2022-09-07T07:19:27.977Z,56.13
2022-09-07T07:24:40.834Z,55.56
2022-09-07T07:27:07.482Z,55.41
2022-09-07T07:29:33.786Z,55.65
2022-09-07T07:32:00.108Z,55.37
2022-09-07T07:34:26.726Z,55.54
2022-09-07T07:36:53.097Z,56.17
2022-09-07T07:42:06.378Z,55.72
2022-09-07T07:44:32.766Z,55.40
2022-09-07T07:46:59.157Z,55.74
2022-09-07T07:49:25.558Z,55.84
2022-09-07T07:54:38.145Z,55.82
2022-09-07T07:57:04.790Z,56.06
2022-09-07T07:59:31.502Z,56.12
2022-09-07T08:01:57.918Z,55.97
2022-09-07T08:04:24.336Z,56.11
2022-09-07T08:06:50.729Z,56.27
2022-09-07T08:09:17.153Z,56.27
2022-09-07T08:11:43.835Z,56.29
2022-09-07T08:14:10.068Z,56.19
2022-09-07T08:16:36.440Z,56.20
2022-09-07T08:19:02.831Z,56.38
2022-09-07T08:21:29.200Z,56.09
2022-09-07T08:23:55.483Z,56.12
2022-09-07T08:26:21.984Z,56.46
2022-09-07T08:28:48.272Z,56.48
2022-09-07T08:31:14.679Z,56.21
2022-09-07T08:33:41.081Z,56.45
2022-09-07T08:36:07.430Z,56.60
2022-09-07T08:38:33.758Z,56.24
2022-09-07T08:41:00.019Z,56.44
2022-09-07T08:43:26.485Z,56.35
2022-09-07T08:45:52.810Z,56.42
2022-09-07T08:48:19.163Z,56.37
2022-09-07T08:50:45.551Z,56.74
2022-09-07T08:53:11.890Z,56.75
2022-09-07T08:55:38.304Z,56.81
2022-09-07T08:58:04.644Z,56.70
2022-09-07T09:00:31.085Z,56.44
2022-09-07T09:05:43.758Z,56.42
2022-09-07T09:08:10.328Z,56.78
2022-09-07T09:10:36.750Z,56.86
2022-09-07T09:13:03.033Z,56.46
2022-09-07T09:15:29.322Z,56.59
2022-09-07T09:17:55.638Z,56.99
2022-09-07T09:20:22.105Z,56.63
2022-09-07T09:22:48.544Z,56.96
2022-09-07T09:25:14.993Z,56.74
2022-09-07T09:27:41.353Z,56.85
2022-09-07T09:30:07.783Z,57.07
2022-09-07T09:32:34.189Z,56.84
2022-09-07T09:35:00.574Z,57.08
2022-09-07T09:37:26.986Z,57.01
2022-09-07T09:39:55.447Z,57.52
2022-09-07T09:42:24.421Z,57.17
2022-09-07T09:44:51.693Z,57.17
2022-09-07T09:47:33.455Z,57.31
2022-09-07T09:49:59.930Z,57.48
2022-09-07T09:52:29.900Z,57.61
2022-09-07T09:55:03.414Z,57.59
2022-09-07T09:57:39.246Z,57.15
2022-09-07T10:00:10.957Z,57.57
2022-09-07T10:05:26.401Z,57.66
2022-09-07T10:07:52.938Z,57.60
2022-09-07T10:10:19.250Z,57.52
2022-09-07T10:12:45.877Z,57.60
2022-09-07T10:15:12.415Z,57.56
2022-09-07T10:17:39.719Z,57.72
2022-09-07T10:20:06.209Z,57.56
2022-09-07T10:22:32.541Z,57.63
2022-09-07T10:24:58.905Z,57.51
2022-09-07T10:27:25.330Z,57.48
2022-09-07T10:29:51.713Z,57.55
2022-09-07T10:32:17.998Z,57.88
2022-09-07T10:34:44.578Z,57.64
2022-09-07T10:37:11.309Z,57.85
2022-09-07T10:39:37.688Z,57.68
2022-09-07T10:42:04.051Z,58.12
2022-09-07T10:44:30.711Z,57.85
2022-09-07T10:46:57.727Z,58.21
2022-09-07T10:49:25.273Z,58.25
2022-09-07T10:51:52.186Z,58.12
2022-09-07T10:54:34.329Z,58.24
2022-09-07T10:57:01.448Z,58.24
2022-09-07T11:00:07.410Z,58.04
2022-09-07T11:02:14.256Z,58.05
2022-09-07T11:04:40.530Z,58.11
2022-09-07T11:07:06.802Z,58.28
2022-09-07T11:09:33.080Z,58.56
2022-09-07T11:12:01.066Z,58.31
2022-09-07T11:14:27.952Z,58.30
2022-09-07T11:16:54.356Z,58.31
2022-09-07T11:19:37.481Z,58.67
2022-09-07T11:22:04.352Z,58.58
2022-09-07T11:24:30.701Z,58.23
2022-09-07T11:26:57.014Z,58.40
2022-09-07T11:29:30.600Z,58.27
2022-09-07T11:31:56.975Z,58.65
2022-09-07T11:34:24.715Z,58.57
2022-09-07T11:36:51.302Z,58.52
2022-09-07T11:39:17.601Z,58.51
2022-09-07T11:41:43.968Z,58.61
2022-09-07T11:44:10.525Z,58.71
2022-09-07T11:46:36.948Z,59.66
2022-09-07T11:50:38.838Z,61.15
2022-09-07T11:53:05.196Z,61.08
2022-09-07T11:55:31.684Z,61.01
2022-09-07T11:57:58.158Z,60.91
2022-09-07T12:00:24.546Z,61.08
2022-09-07T12:03:00.277Z,61.12
2022-09-07T12:05:27.169Z,61.16
2022-09-07T12:07:53.746Z,60.52
2022-09-07T12:10:20.226Z,60.40
2022-09-07T12:12:46.502Z,60.38
2022-09-07T12:15:12.826Z,60.33
2022-09-07T12:17:39.112Z,60.25
2022-09-07T12:20:05.817Z,60.24
2022-09-07T12:22:32.795Z,60.01
2022-09-07T12:24:59.104Z,60.00
2022-09-07T12:27:25.396Z,60.18
2022-09-07T12:29:51.713Z,60.09
2022-09-07T12:35:04.397Z,60.34
2022-09-07T12:37:30.794Z,59.93
2022-09-07T12:39:57.281Z,60.02
2022-09-07T12:42:39.257Z,60.21
2022-09-07T12:45:05.566Z,59.85
2022-09-07T12:47:31.929Z,59.96
2022-09-07T12:49:58.339Z,59.99
2022-09-07T12:52:24.751Z,59.93
2022-09-07T12:55:10.095Z,60.14
2022-09-07T12:57:37.418Z,59.99
2022-09-07T13:00:03.737Z,60.08
2022-09-07T13:02:30.218Z,60.12
2022-09-07T13:04:56.566Z,60.08
2022-09-07T13:07:23.171Z,60.22
2022-09-07T13:09:49.663Z,59.94
2022-09-07T13:12:52.961Z,60.17
2022-09-07T13:15:02.523Z,60.08
2022-09-07T13:17:28.929Z,60.07
2022-09-07T13:19:55.314Z,60.10
2022-09-07T13:22:21.591Z,60.32
2022-09-07T13:24:48.018Z,60.33
2022-09-07T13:27:14.970Z,60.24
2022-09-07T13:29:41.303Z,60.07
2022-09-07T13:32:08.225Z,60.45
2022-09-07T13:34:34.534Z,60.35
2022-09-07T13:37:00.892Z,60.46
2022-09-07T13:39:27.252Z,60.20
2022-09-07T13:41:53.761Z,60.13
2022-09-07T13:44:25.634Z,60.68
2022-09-07T13:46:52.682Z,60.33
2022-09-07T13:49:18.978Z,60.24
2022-09-07T13:51:45.390Z,60.65
2022-09-07T13:54:11.651Z,60.29
2022-09-07T13:56:37.913Z,60.53
2022-09-07T13:59:04.352Z,60.59
2022-09-07T14:01:30.664Z,60.40
2022-09-07T14:03:56.979Z,60.47
2022-09-07T14:06:23.608Z,60.61
2022-09-07T14:08:50.045Z,60.38
2022-09-07T14:11:16.400Z,60.55
2022-09-07T14:13:43.031Z,60.55
2022-09-07T14:16:09.362Z,60.72
2022-09-07T14:18:35.781Z,60.72
2022-09-07T14:21:02.141Z,60.65
2022-09-07T14:23:29.010Z,60.74
2022-09-07T14:28:41.868Z,60.70
2022-09-07T14:31:08.322Z,60.68
2022-09-07T14:33:34.853Z,60.80
2022-09-07T14:36:13.097Z,61.21
2022-09-07T14:41:33.995Z,60.83
2022-09-07T14:44:00.349Z,60.77
2022-09-07T14:46:26.965Z,61.04
2022-09-07T14:48:55.133Z,61.16
2022-09-07T14:51:32.663Z,60.85
2022-09-07T14:54:02.199Z,61.31
2022-09-07T14:56:28.574Z,61.09
2022-09-07T14:58:55.057Z,61.48
2022-09-07T15:04:07.710Z,61.41
2022-09-07T15:09:21.005Z,61.33
2022-09-07T15:11:47.352Z,61.33
2022-09-07T15:14:13.874Z,61.56
2022-09-07T15:16:40.413Z,61.21
2022-09-07T15:19:06.713Z,61.16
2022-09-07T15:21:33.019Z,61.62
2022-09-07T15:23:59.354Z,61.42
2022-09-07T15:29:12.142Z,61.26
2022-09-07T15:31:41.706Z,61.36
2022-09-07T15:34:09.221Z,61.37
2022-09-07T15:36:35.575Z,61.37
2022-09-07T15:39:03.304Z,61.48
2022-09-07T15:41:30.034Z,61.31
2022-09-07T15:43:56.835Z,61.78
2022-09-07T15:46:23.411Z,61.74
2022-09-07T15:48:51.531Z,61.92
2022-09-07T15:54:12.161Z,62.56
2022-09-07T15:56:40.004Z,62.42
2022-09-07T15:59:06.354Z,62.52
2022-09-07T16:04:19.289Z,62.71
2022-09-07T16:06:48.308Z,62.38
2022-09-07T16:09:14.742Z,62.65
2022-09-07T16:11:41.132Z,62.63
2022-09-07T16:14:07.476Z,62.57
2022-09-07T16:19:21.236Z,62.54
2022-09-07T16:21:48.066Z,62.59
2022-09-07T16:24:14.413Z,62.69
2022-09-07T16:26:41.179Z,62.69
2022-09-07T16:29:08.015Z,62.49
2022-09-07T16:31:34.713Z,62.46
2022-09-07T16:34:01.485Z,62.39
2022-09-07T16:36:27.850Z,62.46
2022-09-07T16:38:54.237Z,62.68
2022-09-07T16:41:20.919Z,62.75
2022-09-07T16:43:47.380Z,62.29
2022-09-07T16:46:13.795Z,62.78
2022-09-07T16:48:40.075Z,62.40
2022-09-07T16:51:06.499Z,62.74
2022-09-07T16:53:32.716Z,62.65
2022-09-07T16:55:59.024Z,62.26
2022-09-07T16:58:40.729Z,62.67
2022-09-07T17:01:07.211Z,62.30
2022-09-07T17:03:33.694Z,62.38
2022-09-07T17:06:00.222Z,62.83
2022-09-07T17:08:26.620Z,62.62
2022-09-07T17:10:53.094Z,62.27
2022-09-07T17:13:19.350Z,62.65
2022-09-07T17:15:45.630Z,62.47
2022-09-07T17:18:11.892Z,62.69
2022-09-07T17:20:38.213Z,62.10
2022-09-07T17:23:05.522Z,62.38
2022-09-07T17:25:33.240Z,62.29
2022-09-07T17:28:00.031Z,62.65
2022-09-07T17:30:26.976Z,62.65
2022-09-07T17:32:53.425Z,62.53
2022-09-07T17:35:19.821Z,62.51
2022-09-07T17:37:46.255Z,62.32
2022-09-07T17:40:12.587Z,62.50
2022-09-07T17:45:27.731Z,62.43
2022-09-07T17:47:54.556Z,62.18
2022-09-07T17:50:20.892Z,62.42
2022-09-07T17:52:52.930Z,62.50
2022-09-07T17:55:19.655Z,62.24
2022-09-07T17:57:45.902Z,62.18
2022-09-07T18:00:12.631Z,62.50
2022-09-07T18:02:39.317Z,62.11
2022-09-07T18:05:07.061Z,62.54
2022-09-07T18:07:34.406Z,62.66
2022-09-07T18:10:00.734Z,62.17
2022-09-07T18:12:27.256Z,62.18
2022-09-07T18:14:53.506Z,62.18
2022-09-07T18:17:19.838Z,62.17
2022-09-07T18:19:46.887Z,62.03
2022-09-07T18:22:13.864Z,62.13
2022-09-07T18:24:41.562Z,62.31
2022-09-07T18:27:07.992Z,62.07
2022-09-07T18:29:34.714Z,62.48
2022-09-07T18:32:01.472Z,62.45
2022-09-07T18:34:28.551Z,62.42
2022-09-07T18:36:55.317Z,62.62
2022-09-07T18:39:21.896Z,62.15
2022-09-07T18:41:48.199Z,62.16
2022-09-07T18:47:01.381Z,62.13
2022-09-07T18:49:27.689Z,62.10
2022-09-07T18:54:40.475Z,62.27
2022-09-07T18:57:07.040Z,62.12
2022-09-07T18:59:33.566Z,62.23
2022-09-07T19:02:03.870Z,62.59
2022-09-07T19:07:18.362Z,62.12
2022-09-07T19:09:44.739Z,62.37
2022-09-07T19:12:11.019Z,61.88
2022-09-07T19:14:37.419Z,62.16
2022-09-07T19:17:03.754Z,62.58
2022-09-07T19:19:30.102Z,62.38
2022-09-07T19:21:57.065Z,62.31
2022-09-07T19:24:23.346Z,62.29
2022-09-07T19:26:49.639Z,62.06
2022-09-07T19:29:15.917Z,62.26
2022-09-07T19:31:42.440Z,62.38
2022-09-07T19:34:08.949Z,62.32
2022-09-07T19:36:35.419Z,62.61
2022-09-07T19:39:01.673Z,62.15
2022-09-07T19:41:27.977Z,62.26
2022-09-07T19:43:54.570Z,61.90
2022-09-07T19:46:24.800Z,62.40
2022-09-07T19:48:51.340Z,62.43
2022-09-07T19:51:17.724Z,62.43
2022-09-07T19:53:44.271Z,61.94
2022-09-07T19:56:10.721Z,62.06
2022-09-07T19:58:37.077Z,62.32
2022-09-07T20:01:03.755Z,61.95
2022-09-07T20:03:30.240Z,62.15
2022-09-07T20:05:56.884Z,62.10
2022-09-07T20:08:23.296Z,61.89
2022-09-07T20:10:49.724Z,61.82
2022-09-07T20:13:16.050Z,61.87
2022-09-07T20:15:42.370Z,61.83
2022-09-07T20:18:08.733Z,62.12
2022-09-07T20:20:35.014Z,61.83
2022-09-07T20:23:01.348Z,61.92
2022-09-07T20:25:28.008Z,61.65
2022-09-07T20:27:54.442Z,61.65
2022-09-07T20:30:20.822Z,61.63
2022-09-07T20:32:47.478Z,61.86
2022-09-07T20:35:13.821Z,61.68
2022-09-07T20:37:40.374Z,61.58
2022-09-07T20:40:06.705Z,61.65
2022-09-07T20:42:33.101Z,61.76
2022-09-07T20:44:59.606Z,61.82
2022-09-07T20:47:26.093Z,61.50
2022-09-07T20:49:52.528Z,61.54
2022-09-07T20:52:18.788Z,61.59
2022-09-07T20:54:45.369Z,61.80
2022-09-07T20:57:11.737Z,61.78
2022-09-07T20:59:38.320Z,61.42
2022-09-07T21:02:04.715Z,61.43
2022-09-07T21:04:31.024Z,61.52
2022-09-07T21:06:57.279Z,61.13
2022-09-07T21:09:23.573Z,61.37
2022-09-07T21:11:53.024Z,61.35
2022-09-07T21:14:21.894Z,61.54
2022-09-07T21:16:49.181Z,61.18
2022-09-07T21:19:15.694Z,61.49
2022-09-07T21:21:42.216Z,61.48
2022-09-07T21:24:08.740Z,61.28
2022-09-07T21:26:35.249Z,61.50
2022-09-07T21:29:01.797Z,61.51
2022-09-07T21:31:28.574Z,61.26
2022-09-07T21:33:55.462Z,61.14
2022-09-07T21:36:21.798Z,61.20
2022-09-07T21:38:48.091Z,61.25
2022-09-07T21:41:14.390Z,61.10
2022-09-07T21:43:40.777Z,61.00
2022-09-07T21:46:08.143Z,61.04
2022-09-07T21:48:34.678Z,61.00
2022-09-07T21:51:01.015Z,61.25
2022-09-07T21:53:27.313Z,61.05
2022-09-07T21:55:53.613Z,60.76
2022-09-07T21:58:19.918Z,60.85
2022-09-07T22:00:46.251Z,61.12
2022-09-07T22:03:12.810Z,61.12
2022-09-07T22:05:39.088Z,60.59
2022-09-07T22:08:05.639Z,61.12
2022-09-07T22:10:32.295Z,61.00
2022-09-07T22:12:58.670Z,61.13
2022-09-07T22:15:25.053Z,61.09
2022-09-07T22:17:51.474Z,60.76
2022-09-07T22:20:17.766Z,60.89
2022-09-07T22:22:44.164Z,60.70
2022-09-07T22:25:10.589Z,60.80
2022-09-07T22:27:36.867Z,60.68
2022-09-07T22:30:04.146Z,60.84
2022-09-07T22:32:30.761Z,60.70
2022-09-07T22:34:57.018Z,60.80
2022-09-07T22:37:23.464Z,60.86
2022-09-07T22:39:49.869Z,60.58
2022-09-07T22:42:16.337Z,60.59
2022-09-07T22:44:42.794Z,60.49
2022-09-07T22:47:09.113Z,60.65
2022-09-07T22:49:35.997Z,60.61
2022-09-07T22:52:02.316Z,60.61
2022-09-07T22:54:28.651Z,60.78
2022-09-07T22:56:55.073Z,60.72
2022-09-07T22:59:22.099Z,60.62
2022-09-07T23:01:48.332Z,60.11
2022-09-07T23:04:14.887Z,60.38
2022-09-07T23:06:41.274Z,60.49
2022-09-07T23:09:07.687Z,60.34
2022-09-07T23:11:34.044Z,60.13
2022-09-07T23:14:00.409Z,60.69
2022-09-07T23:16:27.085Z,60.58
2022-09-07T23:18:53.558Z,60.60
2022-09-07T23:21:21.222Z,60.35
2022-09-07T23:23:47.490Z,60.75
2022-09-07T23:26:13.836Z,60.33
2022-09-07T23:28:40.236Z,60.39
2022-09-07T23:31:06.641Z,60.41
2022-09-07T23:33:33.166Z,60.44
2022-09-07T23:35:59.723Z,60.54
2022-09-07T23:38:26.066Z,60.12
2022-09-07T23:40:52.586Z,60.32
2022-09-07T23:43:18.994Z,60.34
2022-09-07T23:45:45.410Z,60.70
2022-09-07T23:48:12.234Z,60.64
2022-09-07T23:50:38.518Z,60.50
2022-09-07T23:53:04.979Z,60.14
2022-09-07T23:55:31.294Z,60.49
2022-09-07T23:57:58.131Z,60.32
